Horseshoe Lake, Washington
Current Conditions -  °F | °C
As of 11:35 AM on Friday 24 Oct 2014 (Local Time) from KPWT Reporting Station
Clear Clear  
Wind Chill: 52°   Ceiling: Unl
Heat Index: 52°   Visibility: 10mi
Dew Point: 48°   Wind: 6mph
Humidity: 88%   Direction: 60°ENE
Pressure: 30.04"   Gusts: NA
Location:  47.5378°N, 122.589°W
Report Text: KPWT 241835Z AUTO 06005KT 10SM CLR 11/09 A3004 RMK AO1
Loading
Personal Weather Stations






























Interactive Weather Map
Tropical Storm Tracking
New forecast layout! Learn more

10-Day Weather Forecast

Advertisements
Track Severe Weather on mobile